sensor_id;sensor_type;location;lat;lon;timestamp;pressure;altitude;pressure_sealevel;temperature;humidity
56392;BME280;42289;53.582;9.714;2022-07-23T00:02:16;101865.34;;;15.38;100.00
56392;BME280;42289;53.582;9.714;2022-07-23T00:04:42;101860.91;;;15.40;100.00
56392;BME280;42289;53.582;9.714;2022-07-23T00:07:09;101925.75;;;15.35;100.00
56392;BME280;42289;53.582;9.714;2022-07-23T00:09:37;101915.50;;;15.29;100.00
56392;BME280;42289;53.582;9.714;2022-07-23T00:12:04;101832.56;;;15.29;100.00
56392;BME280;42289;53.582;9.714;2022-07-23T00:14:30;101828.94;;;15.32;100.00
56392;BME280;42289;53.582;9.714;2022-07-23T00:16:57;101807.94;;;15.34;100.00
56392;BME280;42289;53.582;9.714;2022-07-23T00:19:23;101828.00;;;15.33;100.00
56392;BME280;42289;53.582;9.714;2022-07-23T00:21:50;101832.78;;;15.23;100.00
56392;BME280;42289;53.582;9.714;2022-07-23T00:24:16;101845.72;;;15.28;100.00
56392;BME280;42289;53.582;9.714;2022-07-23T00:26:44;101859.78;;;15.25;100.00
56392;BME280;42289;53.582;9.714;2022-07-23T00:29:10;101856.31;;;15.25;100.00
56392;BME280;42289;53.582;9.714;2022-07-23T00:31:37;101852.91;;;15.23;100.00
56392;BME280;42289;53.582;9.714;2022-07-23T00:34:03;101838.09;;;15.22;100.00
56392;BME280;42289;53.582;9.714;2022-07-23T00:36:29;101822.16;;;15.28;100.00
56392;BME280;42289;53.582;9.714;2022-07-23T00:38:57;101848.50;;;15.23;100.00
56392;BME280;42289;53.582;9.714;2022-07-23T00:41:23;101807.19;;;15.30;100.00
56392;BME280;42289;53.582;9.714;2022-07-23T00:43:51;101775.97;;;15.25;100.00
56392;BME280;42289;53.582;9.714;2022-07-23T00:46:19;101772.28;;;15.29;100.00
56392;BME280;42289;53.582;9.714;2022-07-23T00:48:45;101748.97;;;15.23;100.00
56392;BME280;42289;53.582;9.714;2022-07-23T00:51:12;101734.25;;;15.21;100.00
56392;BME280;42289;53.582;9.714;2022-07-23T00:53:38;101739.38;;;15.24;100.00
56392;BME280;42289;53.582;9.714;2022-07-23T00:56:05;101734.13;;;15.24;100.00
56392;BME280;42289;53.582;9.714;2022-07-23T00:58:34;101716.13;;;15.16;100.00
56392;BME280;42289;53.582;9.714;2022-07-23T01:01:02;101709.50;;;15.07;100.00
56392;BME280;42289;53.582;9.714;2022-07-23T01:03:29;101721.69;;;15.08;100.00
56392;BME280;42289;53.582;9.714;2022-07-23T01:05:55;101733.94;;;15.08;100.00
56392;BME280;42289;53.582;9.714;2022-07-23T01:08:25;101729.69;;;15.05;100.00
56392;BME280;42289;53.582;9.714;2022-07-23T01:10:51;101730.06;;;14.96;100.00
56392;BME280;42289;53.582;9.714;2022-07-23T01:13:18;101758.28;;;15.10;100.00
56392;BME280;42289;53.582;9.714;2022-07-23T01:15:45;101748.16;;;15.02;100.00
56392;BME280;42289;53.582;9.714;2022-07-23T01:18:12;101769.69;;;15.09;100.00
56392;BME280;42289;53.582;9.714;2022-07-23T01:20:39;101776.53;;;15.11;100.00
56392;BME280;42289;53.582;9.714;2022-07-23T01:23:07;101784.00;;;15.00;100.00
56392;BME280;42289;53.582;9.714;2022-07-23T01:25:33;101794.53;;;14.99;100.00
56392;BME280;42289;53.582;9.714;2022-07-23T01:27:59;101803.06;;;15.04;100.00
56392;BME280;42289;53.582;9.714;2022-07-23T01:30:26;101780.66;;;14.96;100.00
56392;BME280;42289;53.582;9.714;2022-07-23T01:32:52;101756.09;;;14.99;100.00
56392;BME280;42289;53.582;9.714;2022-07-23T01:35:19;101751.91;;;14.95;100.00
56392;BME280;42289;53.582;9.714;2022-07-23T01:37:45;101785.72;;;15.01;100.00
56392;BME280;42289;53.582;9.714;2022-07-23T01:40:13;101800.56;;;15.01;100.00
56392;BME280;42289;53.582;9.714;2022-07-23T01:42:39;101778.03;;;14.96;100.00
56392;BME280;42289;53.582;9.714;2022-07-23T01:45:06;101778.91;;;14.97;100.00
56392;BME280;42289;53.582;9.714;2022-07-23T01:47:33;101784.06;;;14.99;100.00
56392;BME280;42289;53.582;9.714;2022-07-23T01:50:00;101784.22;;;14.95;100.00
56392;BME280;42289;53.582;9.714;2022-07-23T01:52:26;101773.66;;;14.97;100.00
56392;BME280;42289;53.582;9.714;2022-07-23T01:54:53;101779.88;;;14.94;100.00
56392;BME280;42289;53.582;9.714;2022-07-23T01:57:20;101814.16;;;14.88;100.00
56392;BME280;42289;53.582;9.714;2022-07-23T01:59:47;101788.19;;;14.84;100.00
56392;BME280;42289;53.582;9.714;2022-07-23T02:02:14;101804.28;;;14.95;100.00
56392;BME280;42289;53.582;9.714;2022-07-23T02:04:40;101784.06;;;14.78;100.00
56392;BME280;42289;53.582;9.714;2022-07-23T02:07:07;101783.06;;;14.80;100.00
56392;BME280;42289;53.582;9.714;2022-07-23T02:09:33;101807.78;;;14.73;100.00
56392;BME280;42289;53.582;9.714;2022-07-23T02:12:00;101794.47;;;14.79;100.00
56392;BME280;42289;53.582;9.714;2022-07-23T02:14:28;101801.50;;;14.77;100.00
56392;BME280;42289;53.582;9.714;2022-07-23T02:16:55;101821.72;;;14.74;100.00
56392;BME280;42289;53.582;9.714;2022-07-23T02:19:21;101830.50;;;14.73;100.00
56392;BME280;42289;53.582;9.714;2022-07-23T02:21:48;101832.63;;;14.63;100.00
56392;BME280;42289;53.582;9.714;2022-07-23T02:24:14;101846.59;;;14.62;100.00
56392;BME280;42289;53.582;9.714;2022-07-23T02:26:41;101855.88;;;14.47;100.00
56392;BME280;42289;53.582;9.714;2022-07-23T02:29:07;101887.97;;;14.52;100.00
56392;BME280;42289;53.582;9.714;2022-07-23T02:31:35;101888.94;;;14.50;100.00
56392;BME280;42289;53.582;9.714;2022-07-23T02:34:02;101892.25;;;14.53;100.00
56392;BME280;42289;53.582;9.714;2022-07-23T02:39:05;101896.00;;;14.71;100.00
56392;BME280;42289;53.582;9.714;2022-07-23T02:41:31;101891.88;;;14.64;100.00
56392;BME280;42289;53.582;9.714;2022-07-23T02:43:57;101900.41;;;14.69;100.00
56392;BME280;42289;53.582;9.714;2022-07-23T02:46:24;101906.41;;;14.73;100.00
56392;BME280;42289;53.582;9.714;2022-07-23T02:48:51;101900.66;;;14.63;100.00
56392;BME280;42289;53.582;9.714;2022-07-23T02:51:18;101890.06;;;14.66;100.00
56392;BME280;42289;53.582;9.714;2022-07-23T02:53:44;101878.72;;;14.66;100.00
56392;BME280;42289;53.582;9.714;2022-07-23T02:56:11;101885.56;;;14.70;100.00
56392;BME280;42289;53.582;9.714;2022-07-23T02:58:37;101874.31;;;14.68;100.00
56392;BME280;42289;53.582;9.714;2022-07-23T03:01:04;101869.91;;;14.68;100.00
56392;BME280;42289;53.582;9.714;2022-07-23T03:03:30;101864.63;;;14.70;100.00
56392;BME280;42289;53.582;9.714;2022-07-23T03:05:59;101878.56;;;14.70;100.00
56392;BME280;42289;53.582;9.714;2022-07-23T03:08:25;101868.56;;;14.58;100.00
56392;BME280;42289;53.582;9.714;2022-07-23T03:10:51;101873.50;;;14.66;100.00
56392;BME280;42289;53.582;9.714;2022-07-23T03:13:19;101861.81;;;14.52;100.00
56392;BME280;42289;53.582;9.714;2022-07-23T03:15:45;101871.13;;;14.36;100.00
56392;BME280;42289;53.582;9.714;2022-07-23T03:18:12;101886.03;;;14.34;100.00
56392;BME280;42289;53.582;9.714;2022-07-23T03:20:38;101908.59;;;14.36;100.00
56392;BME280;42289;53.582;9.714;2022-07-23T03:23:06;101914.69;;;14.37;100.00
56392;BME280;42289;53.582;9.714;2022-07-23T03:25:32;101915.13;;;14.24;100.00
56392;BME280;42289;53.582;9.714;2022-07-23T03:27:59;101937.03;;;14.22;100.00
56392;BME280;42289;53.582;9.714;2022-07-23T03:30:25;101944.16;;;14.17;100.00
56392;BME280;42289;53.582;9.714;2022-07-23T03:32:51;101944.28;;;14.13;100.00
56392;BME280;42289;53.582;9.714;2022-07-23T03:35:18;101958.97;;;14.18;100.00
56392;BME280;42289;53.582;9.714;2022-07-23T03:37:44;101970.56;;;14.10;100.00
56392;BME280;42289;53.582;9.714;2022-07-23T03:40:12;101980.91;;;14.13;100.00
56392;BME280;42289;53.582;9.714;2022-07-23T03:42:39;101982.38;;;14.21;100.00
56392;BME280;42289;53.582;9.714;2022-07-23T03:45:07;101976.25;;;14.22;100.00
56392;BME280;42289;53.582;9.714;2022-07-23T03:47:34;101985.00;;;14.21;100.00
56392;BME280;42289;53.582;9.714;2022-07-23T03:50:00;101969.03;;;14.28;100.00
56392;BME280;42289;53.582;9.714;2022-07-23T03:52:27;101973.25;;;14.33;100.00
56392;BME280;42289;53.582;9.714;2022-07-23T03:54:53;101987.16;;;14.35;100.00
56392;BME280;42289;53.582;9.714;2022-07-23T03:57:21;101993.78;;;14.43;100.00
56392;BME280;42289;53.582;9.714;2022-07-23T03:59:47;101995.34;;;14.49;100.00
56392;BME280;42289;53.582;9.714;2022-07-23T04:02:14;101998.56;;;14.56;100.00
56392;BME280;42289;53.582;9.714;2022-07-23T04:04:40;101996.78;;;14.58;100.00
56392;BME280;42289;53.582;9.714;2022-07-23T04:07:06;102006.50;;;14.54;100.00
56392;BME280;42289;53.582;9.714;2022-07-23T04:09:33;102006.38;;;14.57;100.00
56392;BME280;42289;53.582;9.714;2022-07-23T04:12:00;102002.91;;;14.57;100.00
56392;BME280;42289;53.582;9.714;2022-07-23T04:14:27;102001.59;;;14.45;100.00
56392;BME280;42289;53.582;9.714;2022-07-23T04:16:54;102016.44;;;14.44;100.00
56392;BME280;42289;53.582;9.714;2022-07-23T04:19:20;102001.66;;;14.43;100.00
56392;BME280;42289;53.582;9.714;2022-07-23T04:21:47;101997.88;;;14.27;100.00
56392;BME280;42289;53.582;9.714;2022-07-23T04:24:13;102002.78;;;14.36;100.00
56392;BME280;42289;53.582;9.714;2022-07-23T04:26:39;102004.53;;;14.36;100.00
56392;BME280;42289;53.582;9.714;2022-07-23T04:29:06;101998.00;;;14.22;100.00
56392;BME280;42289;53.582;9.714;2022-07-23T04:31:34;101990.81;;;14.29;100.00
56392;BME280;42289;53.582;9.714;2022-07-23T04:34:00;101981.16;;;14.31;100.00
56392;BME280;42289;53.582;9.714;2022-07-23T04:36:26;101981.16;;;14.31;100.00
56392;BME280;42289;53.582;9.714;2022-07-23T04:38:53;101987.16;;;14.35;100.00
56392;BME280;42289;53.582;9.714;2022-07-23T04:41:19;101988.19;;;14.29;100.00
56392;BME280;42289;53.582;9.714;2022-07-23T04:43:46;101990.16;;;14.24;100.00
56392;BME280;42289;53.582;9.714;2022-07-23T04:46:12;101990.66;;;14.34;100.00
56392;BME280;42289;53.582;9.714;2022-07-23T04:48:40;101985.44;;;14.34;100.00
56392;BME280;42289;53.582;9.714;2022-07-23T04:51:07;101970.56;;;14.34;100.00
56392;BME280;42289;53.582;9.714;2022-07-23T04:53:33;101982.69;;;14.37;100.00
56392;BME280;42289;53.582;9.714;2022-07-23T04:56:00;101986.97;;;14.39;100.00
56392;BME280;42289;53.582;9.714;2022-07-23T04:58:26;102007.09;;;14.37;100.00
56392;BME280;42289;53.582;9.714;2022-07-23T05:00:53;101999.94;;;14.42;100.00
56392;BME280;42289;53.582;9.714;2022-07-23T05:03:19;102001.00;;;14.37;100.00
56392;BME280;42289;53.582;9.714;2022-07-23T05:05:47;101994.13;;;14.34;100.00
56392;BME280;42289;53.582;9.714;2022-07-23T05:08:13;101988.56;;;14.43;100.00
56392;BME280;42289;53.582;9.714;2022-07-23T05:10:40;102001.47;;;14.48;100.00
56392;BME280;42289;53.582;9.714;2022-07-23T05:13:06;101981.41;;;14.49;100.00
56392;BME280;42289;53.582;9.714;2022-07-23T05:15:33;101976.19;;;14.49;100.00
56392;BME280;42289;53.582;9.714;2022-07-23T05:17:59;101983.13;;;14.50;100.00
56392;BME280;42289;53.582;9.714;2022-07-23T05:20:25;101976.88;;;14.54;100.00
56392;BME280;42289;53.582;9.714;2022-07-23T05:22:53;101972.41;;;14.56;100.00
56392;BME280;42289;53.582;9.714;2022-07-23T05:25:20;101974.06;;;14.58;100.00
56392;BME280;42289;53.582;9.714;2022-07-23T05:27:46;101984.53;;;14.58;100.00
56392;BME280;42289;53.582;9.714;2022-07-23T05:30:13;101990.59;;;14.59;100.00
56392;BME280;42289;53.582;9.714;2022-07-23T05:32:39;101986.19;;;14.61;100.00
56392;BME280;42289;53.582;9.714;2022-07-23T05:35:06;101994.50;;;14.72;100.00
56392;BME280;42289;53.582;9.714;2022-07-23T05:37:33;101995.44;;;14.71;100.00
56392;BME280;42289;53.582;9.714;2022-07-23T05:40:02;101995.47;;;14.70;100.00
56392;BME280;42289;53.582;9.714;2022-07-23T05:42:29;101997.81;;;14.77;100.00
56392;BME280;42289;53.582;9.714;2022-07-23T05:44:55;101988.38;;;14.73;100.00
56392;BME280;42289;53.582;9.714;2022-07-23T05:47:22;101990.94;;;14.75;100.00
56392;BME280;42289;53.582;9.714;2022-07-23T05:49:48;101999.53;;;14.78;100.00
56392;BME280;42289;53.582;9.714;2022-07-23T05:52:15;101995.03;;;14.82;100.00
56392;BME280;42289;53.582;9.714;2022-07-23T05:54:41;102007.88;;;14.88;100.00
56392;BME280;42289;53.582;9.714;2022-07-23T05:57:09;102010.41;;;14.91;100.00
56392;BME280;42289;53.582;9.714;2022-07-23T05:59:35;102014.56;;;14.97;100.00
56392;BME280;42289;53.582;9.714;2022-07-23T06:02:02;102008.44;;;14.96;100.00
56392;BME280;42289;53.582;9.714;2022-07-23T06:04:28;101998.84;;;14.97;100.00
56392;BME280;42289;53.582;9.714;2022-07-23T06:06:54;101994.44;;;14.97;100.00
56392;BME280;42289;53.582;9.714;2022-07-23T06:09:21;101998.94;;;14.94;100.00
56392;BME280;42289;53.582;9.714;2022-07-23T06:11:47;101993.47;;;15.00;100.00
56392;BME280;42289;53.582;9.714;2022-07-23T06:14:15;101987.63;;;14.93;100.00
56392;BME280;42289;53.582;9.714;2022-07-23T06:16:41;101984.94;;;14.95;100.00
56392;BME280;42289;53.582;9.714;2022-07-23T06:19:08;101993.41;;;15.02;100.00
56392;BME280;42289;53.582;9.714;2022-07-23T06:21:34;101993.91;;;15.11;100.00
56392;BME280;42289;53.582;9.714;2022-07-23T06:24:00;101971.81;;;15.19;100.00
56392;BME280;42289;53.582;9.714;2022-07-23T06:26:27;101957.25;;;15.34;100.00
56392;BME280;42289;53.582;9.714;2022-07-23T06:28:53;101973.03;;;15.32;100.00
56392;BME280;42289;53.582;9.714;2022-07-23T06:31:21;101969.56;;;15.31;100.00
56392;BME280;42289;53.582;9.714;2022-07-23T06:33:47;101954.97;;;15.46;100.00
56392;BME280;42289;53.582;9.714;2022-07-23T06:36:14;101930.19;;;15.33;100.00
56392;BME280;42289;53.582;9.714;2022-07-23T06:38:40;101910.50;;;15.45;100.00
56392;BME280;42289;53.582;9.714;2022-07-23T06:41:07;101909.00;;;15.60;100.00
56392;BME280;42289;53.582;9.714;2022-07-23T06:43:33;101891.97;;;15.70;100.00
56392;BME280;42289;53.582;9.714;2022-07-23T06:45:59;101900.03;;;15.66;100.00
56392;BME280;42289;53.582;9.714;2022-07-23T06:48:27;101916.84;;;15.39;100.00
56392;BME280;42289;53.582;9.714;2022-07-23T06:50:54;101967.25;;;15.46;100.00
56392;BME280;42289;53.582;9.714;2022-07-23T06:53:20;102004.72;;;15.26;100.00
56392;BME280;42289;53.582;9.714;2022-07-23T06:55:47;102024.81;;;15.47;100.00
56392;BME280;42289;53.582;9.714;2022-07-23T06:58:13;102022.91;;;15.29;100.00
56392;BME280;42289;53.582;9.714;2022-07-23T07:00:40;102028.00;;;15.34;100.00
56392;BME280;42289;53.582;9.714;2022-07-23T07:03:07;102017.09;;;15.44;100.00
56392;BME280;42289;53.582;9.714;2022-07-23T07:05:34;102015.22;;;15.48;100.00
56392;BME280;42289;53.582;9.714;2022-07-23T07:08:01;102011.38;;;15.77;100.00
56392;BME280;42289;53.582;9.714;2022-07-23T07:10:27;101994.75;;;15.78;100.00
56392;BME280;42289;53.582;9.714;2022-07-23T07:12:54;101962.00;;;15.67;100.00
56392;BME280;42289;53.582;9.714;2022-07-23T07:15:20;101966.75;;;15.80;100.00
56392;BME280;42289;53.582;9.714;2022-07-23T07:17:47;101958.06;;;15.99;100.00
56392;BME280;42289;53.582;9.714;2022-07-23T07:20:13;101940.56;;;16.58;100.00
56392;BME280;42289;53.582;9.714;2022-07-23T07:22:41;101876.06;;;16.91;100.00
56392;BME280;42289;53.582;9.714;2022-07-23T07:25:08;101834.13;;;16.70;100.00
56392;BME280;42289;53.582;9.714;2022-07-23T07:27:34;101854.34;;;16.51;100.00
56392;BME280;42289;53.582;9.714;2022-07-23T07:30:01;101851.75;;;16.30;100.00
56392;BME280;42289;53.582;9.714;2022-07-23T07:32:27;101855.59;;;16.23;100.00
56392;BME280;42289;53.582;9.714;2022-07-23T07:34:54;101846.75;;;16.25;100.00
56392;BME280;42289;53.582;9.714;2022-07-23T07:37:21;101859.19;;;16.58;100.00
56392;BME280;42289;53.582;9.714;2022-07-23T07:39:48;101816.84;;;17.03;100.00
56392;BME280;42289;53.582;9.714;2022-07-23T07:42:15;101731.13;;;17.18;100.00
56392;BME280;42289;53.582;9.714;2022-07-23T07:44:41;101768.38;;;17.26;100.00
56392;BME280;42289;53.582;9.714;2022-07-23T07:47:08;101859.47;;;16.71;100.00
56392;BME280;42289;53.582;9.714;2022-07-23T07:49:34;101927.84;;;16.30;100.00
56392;BME280;42289;53.582;9.714;2022-07-23T07:52:01;101995.38;;;15.85;100.00
56392;BME280;42289;53.582;9.714;2022-07-23T07:54:27;102051.56;;;15.56;100.00
56392;BME280;42289;53.582;9.714;2022-07-23T07:56:55;102084.75;;;15.33;100.00
56392;BME280;42289;53.582;9.714;2022-07-23T07:59:21;102103.00;;;15.12;100.00
56392;BME280;42289;53.582;9.714;2022-07-23T08:01:47;102120.09;;;15.23;100.00
56392;BME280;42289;53.582;9.714;2022-07-23T08:04:14;102126.00;;;15.04;100.00
56392;BME280;42289;53.582;9.714;2022-07-23T08:06:40;102117.13;;;15.08;100.00
56392;BME280;42289;53.582;9.714;2022-07-23T08:09:07;102108.88;;;15.19;100.00
56392;BME280;42289;53.582;9.714;2022-07-23T08:11:33;102071.78;;;15.30;100.00
56392;BME280;42289;53.582;9.714;2022-07-23T08:14:01;102047.50;;;15.48;100.00
56392;BME280;42289;53.582;9.714;2022-07-23T08:16:27;102004.03;;;15.65;100.00
56392;BME280;42289;53.582;9.714;2022-07-23T08:18:54;101900.38;;;15.99;100.00
56392;BME280;42289;53.582;9.714;2022-07-23T08:21:20;101829.13;;;16.27;100.00
56392;BME280;42289;53.582;9.714;2022-07-23T08:23:47;101670.91;;;16.62;100.00
56392;BME280;42289;53.582;9.714;2022-07-23T08:26:13;101621.75;;;16.99;100.00
56392;BME280;42289;53.582;9.714;2022-07-23T08:28:40;101525.09;;;17.22;100.00
56392;BME280;42289;53.582;9.714;2022-07-23T08:31:07;101510.69;;;17.75;100.00
56392;BME280;42289;53.582;9.714;2022-07-23T08:33:36;101367.59;;;18.23;100.00
56392;BME280;42289;53.582;9.714;2022-07-23T08:36:03;101379.53;;;18.70;100.00
56392;BME280;42289;53.582;9.714;2022-07-23T08:38:31;101318.91;;;18.99;100.00
56392;BME280;42289;53.582;9.714;2022-07-23T08:40:58;101212.13;;;19.19;100.00
56392;BME280;42289;53.582;9.714;2022-07-23T08:43:26;101185.72;;;19.71;100.00
56392;BME280;42289;53.582;9.714;2022-07-23T08:45:55;101127.97;;;19.79;100.00
56392;BME280;42289;53.582;9.714;2022-07-23T08:48:26;101041.00;;;20.60;100.00
56392;BME280;42289;53.582;9.714;2022-07-23T08:50:55;100996.94;;;20.49;100.00
56392;BME280;42289;53.582;9.714;2022-07-23T08:53:23;100998.66;;;20.73;100.00
56392;BME280;42289;53.582;9.714;2022-07-23T08:55:51;101020.09;;;20.57;100.00
56392;BME280;42289;53.582;9.714;2022-07-23T08:58:18;101028.78;;;20.93;100.00
56392;BME280;42289;53.582;9.714;2022-07-23T09:00:46;101073.47;;;20.73;100.00
56392;BME280;42289;53.582;9.714;2022-07-23T09:03:15;101097.19;;;20.62;100.00
56392;BME280;42289;53.582;9.714;2022-07-23T09:05:44;101124.13;;;20.78;100.00
56392;BME280;42289;53.582;9.714;2022-07-23T09:08:12;101137.13;;;20.46;100.00
56392;BME280;42289;53.582;9.714;2022-07-23T09:10:51;101144.47;;;20.42;100.00
56392;BME280;42289;53.582;9.714;2022-07-23T09:13:32;101116.06;;;20.22;100.00
56392;BME280;42289;53.582;9.714;2022-07-23T09:16:02;101161.16;;;20.19;100.00
56392;BME280;42289;53.582;9.714;2022-07-23T09:18:30;101172.72;;;21.23;100.00
56392;BME280;42289;53.582;9.714;2022-07-23T09:21:25;101245.38;;;21.64;100.00
56392;BME280;42289;53.582;9.714;2022-07-23T09:23:56;101278.06;;;21.63;100.00
56392;BME280;42289;53.582;9.714;2022-07-23T09:26:34;101289.22;;;21.44;100.00
56392;BME280;42289;53.582;9.714;2022-07-23T09:29:06;101265.50;;;21.20;100.00
56392;BME280;42289;53.582;9.714;2022-07-23T09:31:41;101300.00;;;21.29;100.00
56392;BME280;42289;53.582;9.714;2022-07-23T09:34:10;101320.06;;;21.21;100.00
56392;BME280;42289;53.582;9.714;2022-07-23T09:36:39;101264.59;;;20.96;100.00
56392;BME280;42289;53.582;9.714;2022-07-23T09:39:06;101231.66;;;20.29;100.00
56392;BME280;42289;53.582;9.714;2022-07-23T09:41:35;101179.03;;;19.78;100.00
56392;BME280;42289;53.582;9.714;2022-07-23T09:44:07;101168.59;;;19.76;100.00
56392;BME280;42289;53.582;9.714;2022-07-23T09:46:35;101163.88;;;19.69;100.00
56392;BME280;42289;53.582;9.714;2022-07-23T09:49:11;101175.63;;;19.26;100.00
56392;BME280;42289;53.582;9.714;2022-07-23T09:51:45;101208.97;;;19.01;100.00
56392;BME280;42289;53.582;9.714;2022-07-23T09:54:24;101175.47;;;19.03;100.00
56392;BME280;42289;53.582;9.714;2022-07-23T09:56:52;101212.47;;;18.74;100.00
56392;BME280;42289;53.582;9.714;2022-07-23T09:59:22;101200.25;;;18.73;100.00
56392;BME280;42289;53.582;9.714;2022-07-23T10:01:50;101157.75;;;18.92;100.00
56392;BME280;42289;53.582;9.714;2022-07-23T10:04:18;101162.16;;;18.79;100.00
56392;BME280;42289;53.582;9.714;2022-07-23T10:06:46;101142.25;;;19.13;100.00
56392;BME280;42289;53.582;9.714;2022-07-23T10:09:16;101164.69;;;19.19;100.00
56392;BME280;42289;53.582;9.714;2022-07-23T10:11:47;101182.09;;;19.35;100.00
56392;BME280;42289;53.582;9.714;2022-07-23T10:14:14;101166.66;;;19.91;100.00
56392;BME280;42289;53.582;9.714;2022-07-23T10:16:41;101180.19;;;20.11;100.00
56392;BME280;42289;53.582;9.714;2022-07-23T10:19:08;101232.19;;;20.22;100.00
56392;BME280;42289;53.582;9.714;2022-07-23T10:21:40;101227.03;;;20.69;100.00
56392;BME280;42289;53.582;9.714;2022-07-23T10:24:18;101215.41;;;20.71;100.00
56392;BME280;42289;53.582;9.714;2022-07-23T10:26:53;101248.16;;;20.44;100.00
56392;BME280;42289;53.582;9.714;2022-07-23T10:29:35;101231.13;;;20.24;100.00
56392;BME280;42289;53.582;9.714;2022-07-23T10:32:15;101208.25;;;19.88;100.00
56392;BME280;42289;53.582;9.714;2022-07-23T10:34:51;101221.25;;;19.65;100.00
56392;BME280;42289;53.582;9.714;2022-07-23T10:37:24;101240.91;;;19.35;100.00
56392;BME280;42289;53.582;9.714;2022-07-23T10:40:13;101188.72;;;19.40;100.00
56392;BME280;42289;53.582;9.714;2022-07-23T10:42:42;101203.69;;;19.40;100.00
56392;BME280;42289;53.582;9.714;2022-07-23T10:45:23;101193.34;;;19.49;100.00
56392;BME280;42289;53.582;9.714;2022-07-23T10:47:50;101216.63;;;19.69;100.00
56392;BME280;42289;53.582;9.714;2022-07-23T10:50:21;101243.63;;;19.85;100.00
56392;BME280;42289;53.582;9.714;2022-07-23T10:53:08;101231.22;;;20.11;100.00
56392;BME280;42289;53.582;9.714;2022-07-23T10:55:45;101288.72;;;20.19;100.00
56392;BME280;42289;53.582;9.714;2022-07-23T10:58:17;101238.56;;;20.19;100.00
56392;BME280;42289;53.582;9.714;2022-07-23T11:00:44;101287.16;;;20.16;100.00
56392;BME280;42289;53.582;9.714;2022-07-23T11:03:32;101291.47;;;20.42;100.00
56392;BME280;42289;53.582;9.714;2022-07-23T11:06:01;101279.03;;;20.44;100.00
56392;BME280;42289;53.582;9.714;2022-07-23T11:08:28;101305.59;;;20.54;100.00
56392;BME280;42289;53.582;9.714;2022-07-23T11:11:08;101299.69;;;20.50;100.00
56392;BME280;42289;53.582;9.714;2022-07-23T11:13:40;101335.25;;;20.33;100.00
56392;BME280;42289;53.582;9.714;2022-07-23T11:16:25;101330.56;;;19.99;100.00
56392;BME280;42289;53.582;9.714;2022-07-23T11:18:59;101321.91;;;19.72;100.00
56392;BME280;42289;53.582;9.714;2022-07-23T11:21:45;101293.13;;;19.56;100.00
56392;BME280;42289;53.582;9.714;2022-07-23T11:24:12;101257.16;;;19.16;100.00
56392;BME280;42289;53.582;9.714;2022-07-23T11:26:58;101250.91;;;19.04;100.00
56392;BME280;42289;53.582;9.714;2022-07-23T11:29:38;101218.72;;;18.86;100.00
56392;BME280;42289;53.582;9.714;2022-07-23T11:32:07;101196.19;;;18.42;100.00
56392;BME280;42289;53.582;9.714;2022-07-23T11:34:35;101155.78;;;18.56;100.00
56392;BME280;42289;53.582;9.714;2022-07-23T11:37:03;101159.78;;;18.48;100.00
56392;BME280;42289;53.582;9.714;2022-07-23T11:39:31;101148.41;;;18.61;100.00
56392;BME280;42289;53.582;9.714;2022-07-23T11:42:00;101134.53;;;18.85;100.00
56392;BME280;42289;53.582;9.714;2022-07-23T11:44:31;101149.53;;;18.97;100.00
56392;BME280;42289;53.582;9.714;2022-07-23T11:46:59;101168.34;;;18.78;100.00
56392;BME280;42289;53.582;9.714;2022-07-23T11:49:26;101178.53;;;18.57;100.00
56392;BME280;42289;53.582;9.714;2022-07-23T11:52:03;101186.53;;;18.55;100.00
56392;BME280;42289;53.582;9.714;2022-07-23T11:54:30;101187.91;;;18.48;100.00
56392;BME280;42289;53.582;9.714;2022-07-23T11:56:58;101171.66;;;18.41;100.00
56392;BME280;42289;53.582;9.714;2022-07-23T11:59:27;101162.69;;;18.31;100.00
56392;BME280;42289;53.582;9.714;2022-07-23T12:01:58;101143.91;;;18.23;100.00
56392;BME280;42289;53.582;9.714;2022-07-23T12:04:25;101138.28;;;18.42;100.00
56392;BME280;42289;53.582;9.714;2022-07-23T12:07:02;101138.53;;;18.64;100.00
56392;BME280;42289;53.582;9.714;2022-07-23T12:09:29;101152.63;;;18.63;100.00
56392;BME280;42289;53.582;9.714;2022-07-23T12:11:56;101169.63;;;18.72;100.00
56392;BME280;42289;53.582;9.714;2022-07-23T12:14:24;101158.25;;;18.97;100.00
56392;BME280;42289;53.582;9.714;2022-07-23T12:17:06;101203.38;;;18.93;100.00
56392;BME280;42289;53.582;9.714;2022-07-23T12:19:33;101210.97;;;19.10;100.00
56392;BME280;42289;53.582;9.714;2022-07-23T12:21:59;101216.25;;;19.10;100.00
56392;BME280;42289;53.582;9.714;2022-07-23T12:24:26;101192.09;;;19.29;100.00
56392;BME280;42289;53.582;9.714;2022-07-23T12:27:08;101252.63;;;19.31;100.00
56392;BME280;42289;53.582;9.714;2022-07-23T12:29:36;101214.53;;;19.35;100.00
56392;BME280;42289;53.582;9.714;2022-07-23T12:32:16;101285.47;;;19.12;100.00
56392;BME280;42289;53.582;9.714;2022-07-23T12:34:43;101235.84;;;19.32;100.00
56392;BME280;42289;53.582;9.714;2022-07-23T12:37:25;101246.38;;;19.19;100.00
56392;BME280;42289;53.582;9.714;2022-07-23T12:39:51;101272.53;;;19.09;100.00
56392;BME280;42289;53.582;9.714;2022-07-23T12:42:18;101235.22;;;19.15;100.00
56392;BME280;42289;53.582;9.714;2022-07-23T12:45:09;101317.53;;;19.06;100.00
56392;BME280;42289;53.582;9.714;2022-07-23T12:47:53;101320.78;;;18.97;100.00
56392;BME280;42289;53.582;9.714;2022-07-23T12:50:38;101310.41;;;19.21;100.00